This is the latest recevied weather packets stored in our database for station/object DG5TS-10. If no packets are shown the sender has not sent any weather packets the latest 10 day(s).
| Time | Temp. | Humidity | Pressure | Rain* | Wind** | Luminosity | Snow |
|---|---|---|---|---|---|---|---|
| 1777999529 | 25.56° C | 28% | 1009.2 hPa | - | - | - | - |
| 1777998474 | 26.67° C | 27% | 1009.2 hPa | - | - | - | - |
| 1777997419 | 28.89° C | 23% | 1009.2 hPa | - | - | - | - |
| 1777996364 | 30° C | 23% | 1009.2 hPa | - | - | - | - |
| 1777995308 | 31.11° C | 22% | 1009.3 hPa | - | - | - | - |
| 1777994253 | 30.56° C | 23% | 1009.3 hPa | - | - | - | - |
| 1777993199 | 27.22° C | 26% | 1009.6 hPa | - | - | - | - |
| 1777992143 | 26.67° C | 26% | 1009.6 hPa | - | - | - | - |
| 1777991088 | 27.78° C | 25% | 1009.7 hPa | - | - | - | - |
| 1777990033 | 28.33° C | 25% | 1009.7 hPa | - | - | - | - |
| 1777988978 | 27.78° C | 26% | 1009.7 hPa | - | - | - | - |
| 1777987923 | 28.33° C | 25% | 1009.7 hPa | - | - | - | - |
| 1777986867 | 28.33° C | 26% | 1010 hPa | - | - | - | - |
| 1777985813 | 26.67° C | 27% | 1010.1 hPa | - | - | - | - |
| 1777984758 | 26.67° C | 28% | 1010.2 hPa | - | - | - | - |
| 1777983703 | 23.89° C | 31% | 1010.2 hPa | - | - | - | - |
| 1777982647 | 23.89° C | 30% | 1010.2 hPa | - | - | - | - |
| 1777981593 | 23.89° C | 30% | 1010.1 hPa | - | - | - | - |
| 1777980538 | 25.56° C | 27% | 1010.2 hPa | - | - | - | - |
| 1777979482 | 26.11° C | 27% | 1010.3 hPa | - | - | - | - |
| 1777978427 | 26.67° C | 31% | 1010.3 hPa | - | - | - | - |
| 1777977372 | 26.11° C | 32% | 1010.4 hPa | - | - | - | - |
| 1777976317 | 26.67° C | 32% | 1010.5 hPa | - | - | - | - |
| 1777975262 | 26.11° C | 32% | 1010.6 hPa | - | - | - | - |
| 1777974207 | 25.56° C | 33% | 1010.6 hPa | - | - | - | - |
* Rain since midnight (hover to see other rain measurements)
** Current wind speed in m/s (hover to see current wind gust speed)